Central Sonoma County Latest

37 Stations

15 Minute Data | America/Los_Angeles
as of 9/4/26 6:35 PM PDT
Station Date Time Temp (°F) RH (%) Dew Pt (°F) Wind Spd (mph) Wind Dir (°) Wind Gust (mph) Latest Rain (In) Daily Rain (In) Daily Max Temp (°F) Daily Min Temp (°F)
Windsor-NW (Ranch 8) 9/4/26 1830 71.8   9.6 54   28 54.0   2.6 0.0   0.0 WSW | 258 0.0   0.0 0.00 0.01 77.8   6.7 53.4   5.4
Windsor-East (Ranch 16) 9/4/26 1830 70.4   9.2 46   41 48.8   8.7 5.6   2.8 SSW | 198 10.1   4.7 0.00 0.00 76.9   6.6 49.4   9.7
Mark West-North (Ranch 14) 9/4/26 1830 68.8   7.6 47   41 47.7   9.8 2.8   0.1 S | 182 8.9   2.6 0.00 0.00 76.9   6.3 50.8   9.0
Windsor-SE (Silk Rd) 9/4/26 1830 69.8   7.1 53   36 51.7   7.6 4.2   1.3 SW | 234 8.2   1.3 0.00 0.00 75.8   4.4 49.9   8.6
Fulton-NW (Ranch 5) 9/4/26 1830 69.3   7.8 49   41 49.6   9.1 4.7   0.5 SSW | 199 9.3   1.6 0.00 0.00 74.8   5.0 49.9   9.7
Bisordi (Fulton) 9/4/26 1830 69.1   7.8 55   35 52.1   6.0 4.2   1.0 SW | 230 10.5   3.6 0.00 0.00 75.2   5.8 49.1   10.0
Windsor-South (Laughlin Rd) 9/4/26 1830 68.9   6.7 51   37 50.2   8.5 - - - 0.00 0.00 76.4   5.1 51.6   7.0
Fulton-SE (Barnes Rd) 9/4/26 1830 68.9   7.5 50   38 49.4   8.5 0.0   0.0 N | 0 0.0   0.0 0.00 0.01 75.6   5.6 52.3   7.9
Fulton-SW (Ranch 21) 9/4/26 1830 68.5   6.9 50   40 48.9   9.7 6.2   2.5 SW | 233 12.2   5.4 0.00 0.00 75.3   5.3 49.9   7.5
NW Santa Rosa (Piner Road) 9/4/26 1830 67.8   6.0 55   45 51.1   10.8 6.0   3.8 WSW | 238 13.8   7.1 0.00 0.00 75.2   5.3 49.6   6.6
River Rd South (Denner Ranch) 9/4/26 1830 68.4   6.9 50   50 49.3   107.2 8.3   2.2 SW | 226 13.2   4.2 - - 74.9   5.7 49.3   6.7
West Santa Rosa (LOV Vineyard) 8/26/26 0900 53.3   5.2 97   6 52.4   3.5 1.0   0.1 SW | 224 3.6   0.0 0.00 0.00 53.6   5.2 50.2   1.8
Guerneville Rd (Prokopakis) 9/4/26 1830 69.6   6.6 48   43 48.9   11.3 - - - 0.00 0.00 80.3   5.1 50.2   6.6
SunnyView Vineyard (SCWC) 9/4/26 1830 67.6   6.2 49   42 47.8   10.9 5.9   4.6 SW | 225 11.8   7.4 0.00 0.01 75.6   5.3 48.7   6.8
Guerneville Rd West (Balletto) 9/4/26 1830 68.6   6.2 56   38 52.2   8.5 5.3   2.5 WSW | 243 9.5   4.2 0.00 0.01 75.1   4.4 50.1   8.1
Sanchietti Ranch 9/4/26 1830 69.1   6.2 59   32 54.2   5.9 5.1   1.6 W | 266 11.0   4.1 0.00 0.01 75.9   4.3 49.4   9.1
Occidental Rd (Sebastopol) 9/4/26 1830 68.0   5.5 69   31 57.5   5.1 5.2   3.2 SW | 235 11.6   5.5 0.00 0.00 76.4   5.7 48.7   8.8
Harper's Rest (Windsor-West) 9/4/26 1830 70.7   8.3 50   34 51.3   6.4 2.9   1.9 SW | 227 8.1   3.3 0.00 0.00 78.1   5.2 49.2   6.6
Lower Westside Rd (Ranch 12) 9/4/26 1830 70.1   7.1 52   34 51.7   7.2 4.0   1.8 WSW | 258 9.6   4.7 0.00 0.00 75.7   5.3 49.8   5.8
Guerneville (Laughlin Rd) 9/4/26 1830 65.9   2.0 66   17 54.1   4.6 1.9   1.5 WNW | 293 9.1   3.1 0.00 0.00 74.0   4.4 51.5   4.9
Korbel (Winery) 9/4/26 1830 68.7   3.9 56   23 52.5   5.6 1.3   0.1 WSW | 251 8.2   4.7 0.00 0.00 74.4   3.7 52.9   4.5
Forestville (Shone Farms) 9/4/26 1830 68.5   5.3 57   31 52.6   6.9 4.3   3.3 SW | 224 10.2   6.9 0.00 0.01 75.7   5.2 48.1   9.6
Forestville-NE (Ranch 30) 9/4/26 1830 67.4   4.2 63   26 54.5   5.5 5.9   2.6 SW | 226 10.3   4.6 0.00 0.00 76.3   5.6 48.9   7.7
Foggy Bend (Ranch 41) 9/4/26 1830 69.0   4.9 61   25 55.2   4.8 4.5   2.0 WSW | 252 9.6   4.6 0.00 0.00 74.9   5.0 51.1   6.6
Last Stop 9/4/26 1830 67.8   3.6 57   26 52.0   7.1 2.4   1.6 WSW | 239 9.9   7.6 0.00 0.00 77.2   7.3 47.8   10.0
Green Valley Vineyard 9/4/26 1830 65.3   1.4 57   21 49.8   7.0 7.6   5.5 W | 261 16.7   11.4 0.00 0.01 73.5   3.5 49.0   7.9
Park Royal 9/4/26 1830 68.7   6.8 47   44 47.7   11.4 - - - 0.00 0.00 74.6   4.2 49.3   8.9
Merino 9/4/26 1830 69.3   6.9 54   40 51.9   8.6 2.4   0.6 WSW | 240 6.2   2.3 0.00 0.01 77.6   4.9 48.6   8.2
Green Valley (Sanchietti) 9/4/26 1830 67.3   3.0 - - - - - - - 76.6   5.2 46.2   9.8
Keefer Ranch (Green Valley) 9/4/26 1830 66.3   2.8 55   31 49.7   9.5 - - - 0.00 0.00 73.8   3.3 47.2   10.1
Graton-West (Dutton Ranch) 9/4/26 1830 66.4   3.0 60   40 52.0   11.4 3.9   1.3 SSW | 198 12.2   7.3 0.00 0.00 74.7   2.3 48.1   9.5
Graton-South (Mill Station Rd) 9/4/26 1830 67.3   5.3 55   35 50.6   8.5 1.8   1.1 WSW | 240 5.3   1.6 0.00 0.00 72.8   3.1 46.8   11.2
Occidental (Horseshoe Bend) 9/4/26 1830 62.0   1.8 70   26 52.1   7.0 - - - 0.00 0.00 70.9   3.8 51.0   7.8
Sexton Valley (Jacqueline's Blk) 9/4/26 1830 66.9   4.8 61   33 53.0   7.4 4.4   2.7 W | 268 11.4   7.1 0.00 0.01 74.0   3.2 47.6   11.6
Sebastopol Hills (Burnside Rd) 9/4/26 1830 65.1   4.8 64   34 52.5   7.1 4.5   0.5 W | 266 11.3   5.1 0.00 0.00 70.5   3.2 50.9   8.6
Pleasant Hill 9/4/26 1830 66.1   4.1 60   30 51.6   7.4 4.2   2.3 W | 264 11.0   6.6 0.00 0.00 74.4   2.1 48.4   11.6
Seaview/Fort Ross (Hirsch) 9/4/26 1830 57.4   0.1 83   10 52.3   3.1 3.8   1.2 NW | 312 7.1   0.8 0.00 0.00 66.0   5.1 49.1   7.5
Max     71.8 83 57.5 8.3 - 16.7 0.00 0.01 80.3 53.4
Avg     67.8 56 51.5 4.1 - 9.5 0.00 - - -
Min     57.4 46 47.7 0.0 - 0.0 0.00 0.00 66.0 46.2